sensor_id;sensor_type;location;lat;lon;timestamp;pressure;altitude;pressure_sealevel;temperature;humidity
13734;BME280;43298;52.560;13.508;2023-03-23T00:01:54;100033.13;;;11.30;100.00
13734;BME280;43298;52.560;13.508;2023-03-23T00:04:20;100023.44;;;11.18;100.00
13734;BME280;43298;52.560;13.508;2023-03-23T00:06:46;100022.63;;;11.17;100.00
13734;BME280;43298;52.560;13.508;2023-03-23T00:09:14;100015.50;;;11.21;100.00
13734;BME280;43298;52.560;13.508;2023-03-23T00:11:41;100011.34;;;11.18;100.00
13734;BME280;43298;52.560;13.508;2023-03-23T00:14:10;100007.75;;;11.21;100.00
13734;BME280;43298;52.560;13.508;2023-03-23T00:16:40;99996.59;;;11.20;100.00
13734;BME280;43298;52.560;13.508;2023-03-23T00:19:12;100002.00;;;11.16;100.00
13734;BME280;43298;52.560;13.508;2023-03-23T00:21:42;100006.34;;;11.15;100.00
13734;BME280;43298;52.560;13.508;2023-03-23T00:24:17;99997.94;;;11.12;100.00
13734;BME280;43298;52.560;13.508;2023-03-23T00:26:46;99995.66;;;11.06;100.00
13734;BME280;43298;52.560;13.508;2023-03-23T00:29:19;99992.69;;;10.98;100.00
13734;BME280;43298;52.560;13.508;2023-03-23T00:31:47;99992.84;;;10.95;100.00
13734;BME280;43298;52.560;13.508;2023-03-23T00:34:22;99984.69;;;11.02;100.00
13734;BME280;43298;52.560;13.508;2023-03-23T00:36:52;99987.34;;;11.01;100.00
13734;BME280;43298;52.560;13.508;2023-03-23T00:39:23;99986.19;;;10.91;100.00
13734;BME280;43298;52.560;13.508;2023-03-23T00:41:51;99983.25;;;10.81;100.00
13734;BME280;43298;52.560;13.508;2023-03-23T00:44:17;99983.81;;;10.71;100.00
13734;BME280;43298;52.560;13.508;2023-03-23T00:46:47;99978.00;;;10.67;100.00
13734;BME280;43298;52.560;13.508;2023-03-23T00:49:17;99979.75;;;10.67;100.00
13734;BME280;43298;52.560;13.508;2023-03-23T00:51:44;99967.13;;;10.61;100.00
13734;BME280;43298;52.560;13.508;2023-03-23T00:54:11;99966.06;;;10.49;100.00
13734;BME280;43298;52.560;13.508;2023-03-23T00:56:37;99967.31;;;10.42;100.00
13734;BME280;43298;52.560;13.508;2023-03-23T00:59:05;99957.63;;;10.46;100.00
13734;BME280;43298;52.560;13.508;2023-03-23T01:01:32;99963.56;;;10.48;100.00
13734;BME280;43298;52.560;13.508;2023-03-23T01:03:59;99957.16;;;10.55;100.00
13734;BME280;43298;52.560;13.508;2023-03-23T01:06:31;99954.28;;;10.59;100.00
13734;BME280;43298;52.560;13.508;2023-03-23T01:08:58;99945.13;;;10.54;100.00
13734;BME280;43298;52.560;13.508;2023-03-23T01:11:25;99947.78;;;10.52;100.00
13734;BME280;43298;52.560;13.508;2023-03-23T01:13:51;99945.47;;;10.48;100.00
13734;BME280;43298;52.560;13.508;2023-03-23T01:16:17;99952.53;;;10.44;100.00
13734;BME280;43298;52.560;13.508;2023-03-23T01:18:43;99954.88;;;10.49;100.00
13734;BME280;43298;52.560;13.508;2023-03-23T01:21:13;99945.22;;;10.68;100.00
13734;BME280;43298;52.560;13.508;2023-03-23T01:23:41;99950.47;;;10.66;100.00
13734;BME280;43298;52.560;13.508;2023-03-23T01:26:12;99942.63;;;10.52;100.00
13734;BME280;43298;52.560;13.508;2023-03-23T01:28:39;99939.34;;;10.33;100.00
13734;BME280;43298;52.560;13.508;2023-03-23T01:31:13;99934.97;;;10.35;100.00
13734;BME280;43298;52.560;13.508;2023-03-23T01:33:41;99932.63;;;10.31;100.00
13734;BME280;43298;52.560;13.508;2023-03-23T01:36:17;99927.44;;;10.31;100.00
13734;BME280;43298;52.560;13.508;2023-03-23T01:38:45;99927.09;;;10.21;100.00
13734;BME280;43298;52.560;13.508;2023-03-23T01:41:12;99925.41;;;10.20;100.00
13734;BME280;43298;52.560;13.508;2023-03-23T01:45:11;99929.19;;;10.30;100.00
13734;BME280;43298;52.560;13.508;2023-03-23T01:46:54;99924.53;;;10.21;100.00
13734;BME280;43298;52.560;13.508;2023-03-23T01:49:31;99935.84;;;10.34;100.00
13734;BME280;43298;52.560;13.508;2023-03-23T01:52:06;99936.78;;;10.49;100.00
13734;BME280;43298;52.560;13.508;2023-03-23T01:54:35;99919.03;;;10.43;100.00
13734;BME280;43298;52.560;13.508;2023-03-23T01:57:07;99917.78;;;10.50;100.00
13734;BME280;43298;52.560;13.508;2023-03-23T01:59:35;99916.75;;;10.52;100.00
13734;BME280;43298;52.560;13.508;2023-03-23T02:02:02;99910.19;;;10.47;100.00
13734;BME280;43298;52.560;13.508;2023-03-23T02:04:30;99908.34;;;10.49;100.00
13734;BME280;43298;52.560;13.508;2023-03-23T02:06:57;99915.28;;;10.48;100.00
13734;BME280;43298;52.560;13.508;2023-03-23T02:09:25;99905.44;;;10.55;100.00
13734;BME280;43298;52.560;13.508;2023-03-23T02:11:52;99895.28;;;10.67;100.00
13734;BME280;43298;52.560;13.508;2023-03-23T02:14:20;99903.03;;;10.67;100.00
13734;BME280;43298;52.560;13.508;2023-03-23T02:17:00;99901.63;;;10.62;100.00
13734;BME280;43298;52.560;13.508;2023-03-23T02:19:55;99908.50;;;10.77;100.00
13734;BME280;43298;52.560;13.508;2023-03-23T02:29:11;99888.38;;;10.97;100.00
13734;BME280;43298;52.560;13.508;2023-03-23T02:34:55;99885.69;;;10.99;100.00
13734;BME280;43298;52.560;13.508;2023-03-23T02:37:48;99888.75;;;11.05;100.00
13734;BME280;43298;52.560;13.508;2023-03-23T02:40:23;99894.16;;;11.16;100.00
13734;BME280;43298;52.560;13.508;2023-03-23T02:42:54;99883.38;;;11.24;100.00
13734;BME280;43298;52.560;13.508;2023-03-23T02:45:22;99897.75;;;11.43;100.00
13734;BME280;43298;52.560;13.508;2023-03-23T02:47:53;99891.94;;;11.54;100.00
13734;BME280;43298;52.560;13.508;2023-03-23T02:50:22;99894.16;;;11.60;100.00
13734;BME280;43298;52.560;13.508;2023-03-23T02:52:50;99891.16;;;11.67;100.00
13734;BME280;43298;52.560;13.508;2023-03-23T02:55:18;99895.31;;;11.70;100.00
13734;BME280;43298;52.560;13.508;2023-03-23T02:57:46;99896.16;;;11.70;100.00
13734;BME280;43298;52.560;13.508;2023-03-23T03:00:15;99886.78;;;11.68;100.00
13734;BME280;43298;52.560;13.508;2023-03-23T03:02:45;99886.06;;;11.66;100.00
13734;BME280;43298;52.560;13.508;2023-03-23T03:08:38;99876.63;;;11.65;100.00
13734;BME280;43298;52.560;13.508;2023-03-23T03:11:13;99875.78;;;11.64;100.00
13734;BME280;43298;52.560;13.508;2023-03-23T03:13:50;99866.56;;;11.74;100.00
13734;BME280;43298;52.560;13.508;2023-03-23T03:17:04;99870.53;;;11.80;100.00
13734;BME280;43298;52.560;13.508;2023-03-23T03:19:37;99865.09;;;11.84;100.00
13734;BME280;43298;52.560;13.508;2023-03-23T03:22:04;99859.25;;;11.81;100.00
13734;BME280;43298;52.560;13.508;2023-03-23T03:24:31;99867.59;;;11.86;100.00
13734;BME280;43298;52.560;13.508;2023-03-23T03:27:00;99868.13;;;11.91;100.00
13734;BME280;43298;52.560;13.508;2023-03-23T03:29:31;99872.47;;;11.90;100.00
13734;BME280;43298;52.560;13.508;2023-03-23T03:31:59;99874.25;;;11.90;100.00
13734;BME280;43298;52.560;13.508;2023-03-23T03:34:26;99867.38;;;11.89;100.00
13734;BME280;43298;52.560;13.508;2023-03-23T03:36:54;99869.16;;;11.88;100.00
13734;BME280;43298;52.560;13.508;2023-03-23T03:39:25;99876.34;;;11.83;100.00
13734;BME280;43298;52.560;13.508;2023-03-23T03:41:51;99876.34;;;11.83;100.00
13734;BME280;43298;52.560;13.508;2023-03-23T03:44:17;99877.47;;;11.79;100.00
13734;BME280;43298;52.560;13.508;2023-03-23T03:46:43;99869.50;;;11.68;100.00
13734;BME280;43298;52.560;13.508;2023-03-23T03:49:10;99873.59;;;11.43;100.00
13734;BME280;43298;52.560;13.508;2023-03-23T03:51:39;99878.41;;;11.35;100.00
13734;BME280;43298;52.560;13.508;2023-03-23T03:54:06;99868.78;;;11.23;100.00
13734;BME280;43298;52.560;13.508;2023-03-23T03:56:32;99878.75;;;11.15;100.00
13734;BME280;43298;52.560;13.508;2023-03-23T03:59:02;99875.94;;;11.18;100.00
13734;BME280;43298;52.560;13.508;2023-03-23T04:01:28;99883.78;;;11.16;100.00
13734;BME280;43298;52.560;13.508;2023-03-23T04:03:54;99880.91;;;11.07;100.00
13734;BME280;43298;52.560;13.508;2023-03-23T04:06:21;99879.34;;;11.04;100.00
13734;BME280;43298;52.560;13.508;2023-03-23T04:08:47;99886.66;;;11.12;100.00
13734;BME280;43298;52.560;13.508;2023-03-23T04:11:14;99891.84;;;11.12;100.00
13734;BME280;43298;52.560;13.508;2023-03-23T04:13:41;99879.16;;;11.07;100.00
13734;BME280;43298;52.560;13.508;2023-03-23T04:16:07;99876.56;;;11.07;100.00
13734;BME280;43298;52.560;13.508;2023-03-23T04:18:35;99869.66;;;11.08;100.00
13734;BME280;43298;52.560;13.508;2023-03-23T04:21:02;99860.28;;;11.05;100.00
13734;BME280;43298;52.560;13.508;2023-03-23T04:23:31;99860.66;;;10.99;100.00
13734;BME280;43298;52.560;13.508;2023-03-23T04:25:59;99878.19;;;10.94;100.00
13734;BME280;43298;52.560;13.508;2023-03-23T04:28:26;99871.19;;;10.96;100.00
13734;BME280;43298;52.560;13.508;2023-03-23T04:30:54;99870.16;;;10.99;100.00
13734;BME280;43298;52.560;13.508;2023-03-23T04:33:23;99862.31;;;11.00;100.00
13734;BME280;43298;52.560;13.508;2023-03-23T04:35:54;99860.00;;;10.96;100.00
13734;BME280;43298;52.560;13.508;2023-03-23T04:38:22;99866.19;;;10.93;100.00
13734;BME280;43298;52.560;13.508;2023-03-23T04:40:51;99864.53;;;10.92;100.00
13734;BME280;43298;52.560;13.508;2023-03-23T04:43:19;99859.59;;;10.88;100.00
13734;BME280;43298;52.560;13.508;2023-03-23T04:45:57;99864.38;;;10.80;100.00
13734;BME280;43298;52.560;13.508;2023-03-23T04:48:25;99868.06;;;10.76;100.00
13734;BME280;43298;52.560;13.508;2023-03-23T04:50:52;99880.47;;;10.69;100.00
13734;BME280;43298;52.560;13.508;2023-03-23T04:53:18;99888.69;;;10.62;100.00
13734;BME280;43298;52.560;13.508;2023-03-23T04:55:45;99890.59;;;10.58;100.00
13734;BME280;43298;52.560;13.508;2023-03-23T04:58:13;99896.09;;;10.52;100.00
13734;BME280;43298;52.560;13.508;2023-03-23T05:00:40;99897.34;;;10.45;100.00
13734;BME280;43298;52.560;13.508;2023-03-23T05:03:12;99902.84;;;10.39;100.00
13734;BME280;43298;52.560;13.508;2023-03-23T05:05:42;99904.75;;;10.36;100.00
13734;BME280;43298;52.560;13.508;2023-03-23T05:08:08;99909.28;;;10.32;100.00
13734;BME280;43298;52.560;13.508;2023-03-23T05:10:34;99914.53;;;10.31;100.00
13734;BME280;43298;52.560;13.508;2023-03-23T05:13:00;99902.69;;;10.27;100.00
13734;BME280;43298;52.560;13.508;2023-03-23T05:15:26;99899.25;;;10.26;100.00
13734;BME280;43298;52.560;13.508;2023-03-23T05:17:52;99888.19;;;10.24;100.00
13734;BME280;43298;52.560;13.508;2023-03-23T05:20:18;99894.84;;;10.28;100.00
13734;BME280;43298;52.560;13.508;2023-03-23T05:22:46;99889.59;;;10.30;100.00
13734;BME280;43298;52.560;13.508;2023-03-23T05:25:16;99895.75;;;10.27;100.00
13734;BME280;43298;52.560;13.508;2023-03-23T05:27:45;99884.75;;;10.24;100.00
13734;BME280;43298;52.560;13.508;2023-03-23T05:30:15;99889.16;;;10.22;100.00
13734;BME280;43298;52.560;13.508;2023-03-23T05:32:45;99884.06;;;10.20;100.00
13734;BME280;43298;52.560;13.508;2023-03-23T05:35:17;99884.91;;;10.21;100.00
13734;BME280;43298;52.560;13.508;2023-03-23T05:37:44;99887.41;;;10.22;100.00
13734;BME280;43298;52.560;13.508;2023-03-23T05:40:11;99896.03;;;10.23;100.00
13734;BME280;43298;52.560;13.508;2023-03-23T05:42:38;99889.09;;;10.23;100.00
13734;BME280;43298;52.560;13.508;2023-03-23T05:45:08;99900.25;;;10.24;100.00
13734;BME280;43298;52.560;13.508;2023-03-23T05:47:37;99898.34;;;10.27;100.00
13734;BME280;43298;52.560;13.508;2023-03-23T05:50:03;99900.91;;;10.27;100.00
13734;BME280;43298;52.560;13.508;2023-03-23T05:52:30;99896.59;;;10.28;100.00
13734;BME280;43298;52.560;13.508;2023-03-23T05:54:58;99887.84;;;10.30;100.00
13734;BME280;43298;52.560;13.508;2023-03-23T05:57:24;99895.28;;;10.36;100.00
13734;BME280;43298;52.560;13.508;2023-03-23T05:59:50;99894.94;;;10.42;100.00
13734;BME280;43298;52.560;13.508;2023-03-23T06:02:16;99897.69;;;10.39;100.00
13734;BME280;43298;52.560;13.508;2023-03-23T06:04:42;99902.00;;;10.39;100.00
13734;BME280;43298;52.560;13.508;2023-03-23T06:07:09;99906.09;;;10.43;100.00
13734;BME280;43298;52.560;13.508;2023-03-23T06:09:40;99906.44;;;10.37;100.00
13734;BME280;43298;52.560;13.508;2023-03-23T06:12:08;99904.69;;;10.37;100.00
13734;BME280;43298;52.560;13.508;2023-03-23T06:14:35;99909.94;;;10.36;100.00
13734;BME280;43298;52.560;13.508;2023-03-23T06:17:02;99909.94;;;10.36;100.00
13734;BME280;43298;52.560;13.508;2023-03-23T06:19:28;99906.25;;;10.40;100.00
13734;BME280;43298;52.560;13.508;2023-03-23T06:21:54;99914.19;;;10.37;100.00
13734;BME280;43298;52.560;13.508;2023-03-23T06:24:21;99916.78;;;10.37;100.00
13734;BME280;43298;52.560;13.508;2023-03-23T06:26:47;99913.44;;;10.35;100.00
13734;BME280;43298;52.560;13.508;2023-03-23T06:29:13;99924.53;;;10.37;100.00
13734;BME280;43298;52.560;13.508;2023-03-23T06:31:47;99930.44;;;10.39;100.00
13734;BME280;43298;52.560;13.508;2023-03-23T06:34:14;99931.28;;;10.39;100.00
13734;BME280;43298;52.560;13.508;2023-03-23T06:36:40;99932.72;;;10.45;100.00
13734;BME280;43298;52.560;13.508;2023-03-23T06:39:06;99934.28;;;10.47;100.00
13734;BME280;43298;52.560;13.508;2023-03-23T06:41:32;99936.03;;;10.47;100.00
13734;BME280;43298;52.560;13.508;2023-03-23T06:43:59;99940.31;;;10.48;100.00
13734;BME280;43298;52.560;13.508;2023-03-23T06:46:26;99944.53;;;10.49;100.00
13734;BME280;43298;52.560;13.508;2023-03-23T06:48:54;99952.06;;;10.53;100.00
13734;BME280;43298;52.560;13.508;2023-03-23T06:51:20;99956.22;;;10.56;100.00
13734;BME280;43298;52.560;13.508;2023-03-23T06:53:47;99961.31;;;10.57;100.00
13734;BME280;43298;52.560;13.508;2023-03-23T06:56:13;99956.78;;;10.61;100.00
13734;BME280;43298;52.560;13.508;2023-03-23T06:58:40;99956.63;;;10.64;100.00
13734;BME280;43298;52.560;13.508;2023-03-23T07:01:08;99962.72;;;10.63;100.00
13734;BME280;43298;52.560;13.508;2023-03-23T07:03:35;99960.88;;;10.65;100.00
13734;BME280;43298;52.560;13.508;2023-03-23T07:06:02;99966.91;;;10.65;100.00
13734;BME280;43298;52.560;13.508;2023-03-23T07:08:29;99970.41;;;10.64;100.00
13734;BME280;43298;52.560;13.508;2023-03-23T07:10:55;99969.41;;;10.67;100.00
13734;BME280;43298;52.560;13.508;2023-03-23T07:13:22;99963.31;;;10.68;100.00
13734;BME280;43298;52.560;13.508;2023-03-23T07:15:48;99966.66;;;10.70;100.00
13734;BME280;43298;52.560;13.508;2023-03-23T07:18:15;99969.25;;;10.70;100.00
13734;BME280;43298;52.560;13.508;2023-03-23T07:20:40;99967.50;;;10.70;100.00
13734;BME280;43298;52.560;13.508;2023-03-23T07:23:07;99957.88;;;10.72;100.00
13734;BME280;43298;52.560;13.508;2023-03-23T07:25:34;99943.63;;;10.81;100.00
13734;BME280;43298;52.560;13.508;2023-03-23T07:28:02;99930.53;;;10.84;100.00
13734;BME280;43298;52.560;13.508;2023-03-23T07:30:29;99949.56;;;10.83;100.00
13734;BME280;43298;52.560;13.508;2023-03-23T07:32:57;99956.47;;;10.82;100.00
13734;BME280;43298;52.560;13.508;2023-03-23T07:35:24;99961.47;;;10.85;100.00
13734;BME280;43298;52.560;13.508;2023-03-23T07:37:51;99968.16;;;10.89;100.00
13734;BME280;43298;52.560;13.508;2023-03-23T07:40:18;99973.41;;;10.88;100.00
13734;BME280;43298;52.560;13.508;2023-03-23T07:42:52;99953.66;;;10.87;100.00
13734;BME280;43298;52.560;13.508;2023-03-23T07:45:18;99963.16;;;10.86;100.00
13734;BME280;43298;52.560;13.508;2023-03-23T07:47:44;99968.22;;;10.88;100.00
13734;BME280;43298;52.560;13.508;2023-03-23T07:50:10;99964.97;;;11.00;100.00
13734;BME280;43298;52.560;13.508;2023-03-23T07:52:38;99951.53;;;11.09;100.00
13734;BME280;43298;52.560;13.508;2023-03-23T07:55:06;99941.19;;;11.09;100.00
13734;BME280;43298;52.560;13.508;2023-03-23T07:57:32;99919.22;;;11.16;100.00
13734;BME280;43298;52.560;13.508;2023-03-23T07:59:59;99904.25;;;11.21;100.00
13734;BME280;43298;52.560;13.508;2023-03-23T08:02:26;99912.38;;;11.29;100.00
13734;BME280;43298;52.560;13.508;2023-03-23T08:04:52;99895.78;;;11.33;100.00
13734;BME280;43298;52.560;13.508;2023-03-23T08:07:20;99915.19;;;11.26;100.00
13734;BME280;43298;52.560;13.508;2023-03-23T08:09:48;99925.88;;;11.20;100.00
13734;BME280;43298;52.560;13.508;2023-03-23T08:12:14;99931.69;;;11.23;100.00
13734;BME280;43298;52.560;13.508;2023-03-23T08:14:40;99933.63;;;11.20;100.00
13734;BME280;43298;52.560;13.508;2023-03-23T08:17:08;99939.38;;;11.25;100.00
13734;BME280;43298;52.560;13.508;2023-03-23T08:19:35;99949.56;;;11.28;100.00
13734;BME280;43298;52.560;13.508;2023-03-23T08:22:04;99954.22;;;11.37;100.00
13734;BME280;43298;52.560;13.508;2023-03-23T08:24:31;99948.03;;;11.39;100.00
13734;BME280;43298;52.560;13.508;2023-03-23T08:26:59;99956.84;;;11.51;100.00
13734;BME280;43298;52.560;13.508;2023-03-23T08:29:25;99949.25;;;11.48;100.00
13734;BME280;43298;52.560;13.508;2023-03-23T08:31:52;99964.03;;;11.46;100.00
13734;BME280;43298;52.560;13.508;2023-03-23T08:34:19;99952.41;;;11.53;100.00
13734;BME280;43298;52.560;13.508;2023-03-23T08:36:45;99953.50;;;11.49;100.00
13734;BME280;43298;52.560;13.508;2023-03-23T08:39:13;99946.50;;;11.51;100.00
13734;BME280;43298;52.560;13.508;2023-03-23T08:41:41;99923.47;;;11.60;100.00
13734;BME280;43298;52.560;13.508;2023-03-23T08:44:06;99900.13;;;11.62;100.00
13734;BME280;43298;52.560;13.508;2023-03-23T08:46:34;99924.16;;;11.64;100.00
13734;BME280;43298;52.560;13.508;2023-03-23T08:49:00;99934.34;;;11.67;100.00
13734;BME280;43298;52.560;13.508;2023-03-23T08:51:26;99949.25;;;11.77;100.00
13734;BME280;43298;52.560;13.508;2023-03-23T08:53:51;99939.34;;;11.84;100.00
13734;BME280;43298;52.560;13.508;2023-03-23T08:56:18;99941.50;;;11.91;100.00
13734;BME280;43298;52.560;13.508;2023-03-23T08:58:44;99937.31;;;11.89;100.00
13734;BME280;43298;52.560;13.508;2023-03-23T09:01:10;99921.59;;;11.92;100.00
13734;BME280;43298;52.560;13.508;2023-03-23T09:03:37;99921.78;;;11.89;100.00
13734;BME280;43298;52.560;13.508;2023-03-23T09:06:06;99911.81;;;11.97;100.00
13734;BME280;43298;52.560;13.508;2023-03-23T09:08:33;99918.28;;;12.18;100.00
13734;BME280;43298;52.560;13.508;2023-03-23T09:11:00;99929.19;;;12.37;100.00
13734;BME280;43298;52.560;13.508;2023-03-23T09:13:26;99935.56;;;12.46;100.00
13734;BME280;43298;52.560;13.508;2023-03-23T09:15:52;99933.06;;;12.30;100.00
13734;BME280;43298;52.560;13.508;2023-03-23T09:18:18;99928.25;;;12.24;100.00
13734;BME280;43298;52.560;13.508;2023-03-23T09:20:45;99931.41;;;12.29;100.00
13734;BME280;43298;52.560;13.508;2023-03-23T09:23:11;99924.38;;;12.17;100.00
13734;BME280;43298;52.560;13.508;2023-03-23T09:25:39;99913.53;;;12.39;100.00
13734;BME280;43298;52.560;13.508;2023-03-23T09:28:05;99910.84;;;12.40;100.00
13734;BME280;43298;52.560;13.508;2023-03-23T09:30:33;99907.84;;;12.46;100.00
13734;BME280;43298;52.560;13.508;2023-03-23T09:33:02;99903.41;;;12.48;100.00
13734;BME280;43298;52.560;13.508;2023-03-23T09:35:30;99896.13;;;12.67;100.00
13734;BME280;43298;52.560;13.508;2023-03-23T09:37:57;99898.00;;;13.18;100.00
13734;BME280;43298;52.560;13.508;2023-03-23T09:48:59;99906.56;;;13.70;100.00
13734;BME280;43298;52.560;13.508;2023-03-23T09:54:21;99900.34;;;13.73;100.00
13734;BME280;43298;52.560;13.508;2023-03-23T09:56:50;99908.88;;;13.75;100.00
13734;BME280;43298;52.560;13.508;2023-03-23T09:59:37;99905.22;;;13.77;100.00
13734;BME280;43298;52.560;13.508;2023-03-23T10:02:19;99902.00;;;13.99;100.00
13734;BME280;43298;52.560;13.508;2023-03-23T10:04:50;99905.94;;;14.17;100.00
13734;BME280;43298;52.560;13.508;2023-03-23T10:07:23;99909.69;;;14.13;100.00
13734;BME280;43298;52.560;13.508;2023-03-23T10:10:00;99894.91;;;14.01;100.00
13734;BME280;43298;52.560;13.508;2023-03-23T10:13:02;99907.09;;;14.00;100.00
13734;BME280;43298;52.560;13.508;2023-03-23T10:15:35;99909.16;;;13.83;100.00
13734;BME280;43298;52.560;13.508;2023-03-23T10:18:25;99910.41;;;13.77;100.00
13734;BME280;43298;52.560;13.508;2023-03-23T10:21:01;99906.47;;;13.84;100.00
13734;BME280;43298;52.560;13.508;2023-03-23T10:23:57;99904.91;;;13.94;100.00
13734;BME280;43298;52.560;13.508;2023-03-23T10:29:38;99905.84;;;14.31;100.00
13734;BME280;43298;52.560;13.508;2023-03-23T10:32:18;99889.47;;;14.41;100.00
13734;BME280;43298;52.560;13.508;2023-03-23T10:35:01;99891.56;;;14.36;100.00
13734;BME280;43298;52.560;13.508;2023-03-23T10:37:36;99893.34;;;14.59;100.00
13734;BME280;43298;52.560;13.508;2023-03-23T10:40:06;99891.38;;;14.86;100.00
13734;BME280;43298;52.560;13.508;2023-03-23T10:42:39;99898.03;;;14.90;100.00
13734;BME280;43298;52.560;13.508;2023-03-23T10:45:16;99900.53;;;14.92;100.00
13734;BME280;43298;52.560;13.508;2023-03-23T10:47:53;99892.72;;;14.92;100.00
13734;BME280;43298;52.560;13.508;2023-03-23T10:50:30;99896.38;;;14.66;100.00
13734;BME280;43298;52.560;13.508;2023-03-23T10:53:00;99904.56;;;14.72;100.00
13734;BME280;43298;52.560;13.508;2023-03-23T10:55:39;99914.69;;;14.88;100.00
13734;BME280;43298;52.560;13.508;2023-03-23T10:58:11;99906.69;;;14.67;100.00
13734;BME280;43298;52.560;13.508;2023-03-23T11:00:45;99917.50;;;14.61;100.00
13734;BME280;43298;52.560;13.508;2023-03-23T11:05:57;99921.84;;;14.73;100.00
13734;BME280;43298;52.560;13.508;2023-03-23T11:08:28;99923.09;;;14.68;100.00
13734;BME280;43298;52.560;13.508;2023-03-23T11:11:37;99919.50;;;14.81;100.00
13734;BME280;43298;52.560;13.508;2023-03-23T11:16:51;99942.28;;;14.67;100.00
13734;BME280;43298;52.560;13.508;2023-03-23T11:19:28;99932.50;;;14.81;100.00
13734;BME280;43298;52.560;13.508;2023-03-23T11:24:37;99937.72;;;14.81;100.00
13734;BME280;43298;52.560;13.508;2023-03-23T11:27:07;99950.41;;;14.86;100.00
13734;BME280;43298;52.560;13.508;2023-03-23T11:29:36;99949.31;;;15.01;100.00
13734;BME280;43298;52.560;13.508;2023-03-23T11:32:11;99944.28;;;15.11;100.00
13734;BME280;43298;52.560;13.508;2023-03-23T11:34:47;99954.75;;;15.22;100.00
13734;BME280;43298;52.560;13.508;2023-03-23T11:40:14;99963.38;;;15.46;100.00
13734;BME280;43298;52.560;13.508;2023-03-23T11:45:38;99960.66;;;15.47;100.00
13734;BME280;43298;52.560;13.508;2023-03-23T11:48:44;99966.63;;;15.49;100.00
13734;BME280;43298;52.560;13.508;2023-03-23T11:51:42;99961.22;;;15.63;100.00
13734;BME280;43298;52.560;13.508;2023-03-23T11:54:32;99979.13;;;15.68;100.00
13734;BME280;43298;52.560;13.508;2023-03-23T11:56:59;99967.09;;;15.54;100.00
13734;BME280;43298;52.560;13.508;2023-03-23T11:59:35;99965.09;;;15.58;100.00
13734;BME280;43298;52.560;13.508;2023-03-23T12:02:46;99970.75;;;15.97;100.00
13734;BME280;43298;52.560;13.508;2023-03-23T12:05:47;99976.09;;;15.96;100.00
13734;BME280;43298;52.560;13.508;2023-03-23T12:12:13;99980.63;;;16.16;100.00
13734;BME280;43298;52.560;13.508;2023-03-23T12:15:22;99985.13;;;16.03;100.00
13734;BME280;43298;52.560;13.508;2023-03-23T12:30:21;99977.09;;;15.71;100.00
13734;BME280;43298;52.560;13.508;2023-03-23T12:41:26;99955.66;;;15.68;100.00
13734;BME280;43298;52.560;13.508;2023-03-23T12:44:07;99965.38;;;15.77;100.00
13734;BME280;43298;52.560;13.508;2023-03-23T12:47:07;99950.25;;;15.82;100.00
13734;BME280;43298;52.560;13.508;2023-03-23T12:49:52;99946.19;;;15.78;100.00
13734;BME280;43298;52.560;13.508;2023-03-23T12:52:33;99956.13;;;15.73;100.00
13734;BME280;43298;52.560;13.508;2023-03-23T12:58:05;99922.75;;;15.89;100.00
13734;BME280;43298;52.560;13.508;2023-03-23T13:00:59;99913.28;;;16.21;100.00
13734;BME280;43298;52.560;13.508;2023-03-23T13:03:59;99919.94;;;16.47;100.00
13734;BME280;43298;52.560;13.508;2023-03-23T13:06:38;99934.75;;;16.46;100.00
13734;BME280;43298;52.560;13.508;2023-03-23T13:11:47;99948.72;;;16.67;100.00
13734;BME280;43298;52.560;13.508;2023-03-23T13:17:37;99945.00;;;17.55;100.00
13734;BME280;43298;52.560;13.508;2023-03-23T13:23:26;99937.44;;;17.72;100.00
13734;BME280;43298;52.560;13.508;2023-03-23T13:26:05;99924.19;;;17.95;100.00
13734;BME280;43298;52.560;13.508;2023-03-23T13:28:54;99924.31;;;18.23;100.00
13734;BME280;43298;52.560;13.508;2023-03-23T13:31:31;99917.88;;;17.97;100.00
13734;BME280;43298;52.560;13.508;2023-03-23T13:34:06;99926.28;;;17.39;100.00
13734;BME280;43298;52.560;13.508;2023-03-23T13:36:40;99914.53;;;17.65;100.00
13734;BME280;43298;52.560;13.508;2023-03-23T13:39:39;99914.31;;;17.05;100.00
13734;BME280;43298;52.560;13.508;2023-03-23T13:49:57;99878.59;;;18.76;100.00
13734;BME280;43298;52.560;13.508;2023-03-23T13:52:50;99877.53;;;18.98;100.00
13734;BME280;43298;52.560;13.508;2023-03-23T14:03:23;99886.19;;;18.89;97.34
13734;BME280;43298;52.560;13.508;2023-03-23T14:11:09;99889.84;;;17.58;100.00
13734;BME280;43298;52.560;13.508;2023-03-23T14:16:25;99890.69;;;17.27;100.00
13734;BME280;43298;52.560;13.508;2023-03-23T14:19:25;99895.47;;;18.04;100.00
13734;BME280;43298;52.560;13.508;2023-03-23T14:21:57;99877.66;;;18.28;97.87
13734;BME280;43298;52.560;13.508;2023-03-23T14:24:29;99893.25;;;17.49;100.00
13734;BME280;43298;52.560;13.508;2023-03-23T14:27:19;99894.34;;;17.35;100.00
13734;BME280;43298;52.560;13.508;2023-03-23T14:29:46;99894.28;;;17.26;100.00
13734;BME280;43298;52.560;13.508;2023-03-23T14:32:18;99891.66;;;18.18;100.00
13734;BME280;43298;52.560;13.508;2023-03-23T14:34:50;99887.06;;;17.50;99.85
13734;BME280;43298;52.560;13.508;2023-03-23T14:37:16;99894.94;;;18.40;96.99
13734;BME280;43298;52.560;13.508;2023-03-23T14:39:48;99890.31;;;18.82;94.69
13734;BME280;43298;52.560;13.508;2023-03-23T14:42:34;99887.91;;;18.11;95.94
13734;BME280;43298;52.560;13.508;2023-03-23T14:45:02;99891.09;;;17.22;100.00